createdAt,value
2018-05-04T00:00:57.506Z,99.99
2018-05-04T00:10:55.429Z,99.99
2018-05-04T00:20:53.182Z,99.99
2018-05-04T00:30:46.999Z,99.99
2018-05-04T00:40:45.249Z,99.99
2018-05-04T00:50:43.237Z,99.99
2018-05-04T01:00:38.763Z,99.99
2018-05-04T01:10:36.508Z,99.99
2018-05-04T01:20:34.986Z,99.99
2018-05-04T01:30:32.522Z,99.99
2018-05-04T01:40:30.039Z,99.99
2018-05-04T01:50:28.901Z,99.99
2018-05-04T02:00:25.998Z,99.99
2018-05-04T02:10:19.686Z,99.99
2018-05-04T02:20:17.944Z,99.99
2018-05-04T02:30:13.422Z,99.99
2018-05-04T02:40:08.310Z,99.99
2018-05-04T02:50:07.538Z,99.99
2018-05-04T03:00:06.383Z,99.99
2018-05-04T03:10:03.616Z,99.99
2018-05-04T03:20:00.107Z,99.99
2018-05-04T03:29:57.828Z,99.99
2018-05-04T03:39:56.246Z,99.78
2018-05-04T03:49:53.175Z,99.63
2018-05-04T03:59:48.767Z,98.82
2018-05-04T04:09:47.952Z,99.99
2018-05-04T04:19:45.975Z,99.79
2018-05-04T04:29:40.511Z,99.13
2018-05-04T04:39:31.918Z,99.33
2018-05-04T04:49:22.789Z,98.93
2018-05-04T04:59:21.705Z,98.93
2018-05-04T05:09:18.702Z,99.89
2018-05-04T05:19:14.969Z,98.24
2018-05-04T05:29:13.161Z,99.04
2018-05-04T05:39:10.071Z,97.03
2018-05-04T05:49:08.042Z,95.78
2018-05-04T05:59:05.909Z,97.24
2018-05-04T06:09:04.179Z,96.84
2018-05-04T06:19:00.185Z,96.98
2018-05-04T06:28:56.983Z,97.64
2018-05-04T06:38:55.368Z,96.94
2018-05-04T06:48:52.603Z,99.66
2018-05-04T06:58:49.546Z,98.00
2018-05-04T07:08:43.876Z,99.81
2018-05-04T07:18:39.611Z,99.99
2018-05-04T07:28:34.327Z,99.99
2018-05-04T07:38:25.396Z,99.99
2018-05-04T07:48:24.204Z,98.31
2018-05-04T07:58:20.520Z,99.99
2018-05-04T08:08:15.887Z,99.99
2018-05-04T08:18:13.894Z,99.99
2018-05-04T08:28:12.235Z,99.99
2018-05-04T08:38:07.096Z,99.99
2018-05-04T08:48:01.628Z,99.99
2018-05-04T08:57:58.300Z,99.99
2018-05-04T09:07:57.332Z,96.41
2018-05-04T09:17:51.890Z,93.01
2018-05-04T09:27:48.048Z,93.73
2018-05-04T09:37:45.937Z,95.57
2018-05-04T09:47:42.809Z,97.33
2018-05-04T09:57:38.967Z,93.74
2018-05-04T10:07:37.495Z,94.04
2018-05-04T10:17:32.201Z,97.08
2018-05-04T10:27:27.761Z,96.23
2018-05-04T10:37:22.880Z,95.49
2018-05-04T10:47:20.648Z,97.29
2018-05-04T10:57:19.344Z,89.49
2018-05-04T11:07:18.015Z,88.04
2018-05-04T11:17:12.727Z,89.32
2018-05-04T11:27:12.832Z,82.70
2018-05-04T11:37:11.575Z,77.42
2018-05-04T11:47:12.137Z,67.87
2018-05-04T11:57:04.505Z,66.39
2018-05-04T12:07:00.381Z,67.58
2018-05-04T12:16:56.487Z,67.05
2018-05-04T12:26:52.347Z,67.34
2018-05-04T12:36:30.286Z,69.79
2018-05-04T12:46:10.521Z,63.48
2018-05-04T12:55:48.367Z,69.76
2018-05-04T13:05:42.708Z,65.39
2018-05-04T13:15:15.964Z,69.73
2018-05-04T13:24:52.054Z,67.70
2018-05-04T13:34:47.702Z,64.07
2018-05-04T13:44:45.239Z,64.27
2018-05-04T13:54:23.450Z,66.51
2018-05-04T14:04:18.288Z,65.42
2018-05-04T14:14:14.126Z,65.82
2018-05-04T14:24:09.723Z,67.37
2018-05-04T14:34:04.737Z,68.93
2018-05-04T14:44:00.838Z,68.83
2018-05-04T14:53:54.159Z,70.56
2018-05-04T15:03:49.099Z,68.66
2018-05-04T15:13:44.497Z,69.36
2018-05-04T15:23:42.294Z,71.25
2018-05-04T15:33:40.174Z,67.67
2018-05-04T15:43:39.775Z,64.47
2018-05-04T15:53:37.245Z,67.31
2018-05-04T16:03:33.967Z,71.51
2018-05-04T16:13:27.948Z,72.21
2018-05-04T16:23:22.534Z,74.90
2018-05-04T16:33:18.396Z,79.16
2018-05-04T16:43:14.701Z,80.64
2018-05-04T16:53:11.359Z,80.64
2018-05-04T17:03:05.303Z,84.41
2018-05-04T17:12:58.701Z,87.55
2018-05-04T17:22:50.969Z,88.99
2018-05-04T17:32:46.863Z,91.33
2018-05-04T17:42:40.245Z,94.32
2018-05-04T17:52:33.715Z,93.02
2018-05-04T18:02:26.549Z,93.87
2018-05-04T18:12:24.780Z,95.82
2018-05-04T18:22:20.166Z,95.62
2018-05-04T18:32:15.038Z,97.92
2018-05-04T18:42:12.129Z,97.77
2018-05-04T18:52:08.974Z,96.77
2018-05-04T19:02:00.171Z,99.99
2018-05-04T19:11:56.337Z,99.99
2018-05-04T19:21:49.179Z,99.99
2018-05-04T19:31:41.654Z,99.99
2018-05-04T19:41:39.112Z,99.82
2018-05-04T19:51:34.055Z,99.99
2018-05-04T20:01:28.566Z,96.91
2018-05-04T20:11:26.178Z,94.95
2018-05-04T20:21:20.655Z,98.51
2018-05-04T20:31:12.799Z,99.99
2018-05-04T20:41:09.982Z,99.99
2018-05-04T20:51:03.217Z,99.99
2018-05-04T21:00:57.550Z,99.99
2018-05-04T21:10:53.169Z,99.06
2018-05-04T21:20:49.884Z,94.89
2018-05-04T21:30:46.663Z,90.45
2018-05-04T21:40:43.661Z,92.20
2018-05-04T21:50:38.336Z,92.10
2018-05-04T22:00:34.756Z,94.82
2018-05-04T22:10:30.570Z,96.68
2018-05-04T22:20:28.236Z,97.69
2018-05-04T22:30:25.049Z,95.87
2018-05-04T22:40:21.931Z,99.99
2018-05-04T22:50:21.000Z,99.99
2018-05-04T23:00:08.232Z,99.99
2018-05-04T23:10:05.780Z,99.99
2018-05-04T23:20:01.778Z,99.99
2018-05-04T23:30:00.119Z,99.99
2018-05-04T23:39:56.577Z,99.99
2018-05-04T23:49:54.087Z,99.99
2018-05-04T23:59:48.538Z,99.99
